createdAt,value
2023-01-01T00:00:22.564Z,98854.50
2023-01-01T00:02:49.587Z,98839.75
2023-01-01T00:05:16.691Z,98836.47
2023-01-01T00:07:43.659Z,98839.28
2023-01-01T00:10:29.717Z,98834.47
2023-01-01T00:12:57.572Z,98834.47
2023-01-01T00:15:25.412Z,98834.78
2023-01-01T00:17:52.992Z,98838.00
2023-01-01T00:20:20.191Z,98829.69
2023-01-01T00:22:55.776Z,98823.56
2023-01-01T00:25:24.120Z,98825.19
2023-01-01T00:27:51.115Z,98819.75
2023-01-01T00:30:18.267Z,98817.91
2023-01-01T00:32:55.162Z,98814.25
2023-01-01T00:35:25.237Z,98821.84
2023-01-01T00:37:53.347Z,98819.19
2023-01-01T00:40:20.391Z,98812.41
2023-01-01T00:42:47.424Z,98798.19
2023-01-01T00:45:20.924Z,98787.56
2023-01-01T00:47:49.480Z,98785.09
2023-01-01T00:50:16.829Z,98775.31
2023-01-01T00:52:43.858Z,98763.88
2023-01-01T00:55:11.575Z,98754.59
2023-01-01T00:57:39.789Z,98758.06
2023-01-01T01:00:08.027Z,98749.09
2023-01-01T01:02:36.295Z,98745.47
2023-01-01T01:05:04.959Z,98739.69
2023-01-01T01:07:38.747Z,98727.72
2023-01-01T01:10:07.223Z,98733.84
2023-01-01T01:12:34.910Z,98725.59
2023-01-01T01:15:02.330Z,98728.91
2023-01-01T01:17:31.400Z,98729.72
2023-01-01T01:19:58.403Z,98718.31
2023-01-01T01:22:28.684Z,98716.66
2023-01-01T01:24:57.570Z,98718.75
2023-01-01T01:27:24.764Z,98704.53
2023-01-01T01:29:51.831Z,98704.31
2023-01-01T01:32:19.337Z,98690.44
2023-01-01T01:34:47.348Z,98701.66
2023-01-01T01:37:15.680Z,98687.81
2023-01-01T01:39:42.893Z,98687.44
2023-01-01T01:42:17.053Z,98679.84
2023-01-01T01:44:47.844Z,98689.44
2023-01-01T01:47:18.040Z,98679.38
2023-01-01T01:49:45.495Z,98678.00
2023-01-01T01:52:12.944Z,98675.38
2023-01-01T01:54:40.756Z,98669.88
2023-01-01T01:57:09.897Z,98674.81
2023-01-01T01:59:41.346Z,98667.69
2023-01-01T02:02:19.033Z,98668.69
2023-01-01T02:04:46.301Z,98662.56
2023-01-01T02:07:14.398Z,98673.53
2023-01-01T02:09:41.558Z,98677.47
2023-01-01T02:12:09.025Z,98663.22
2023-01-01T02:14:36.159Z,98652.22
2023-01-01T02:17:09.775Z,98654.25
2023-01-01T02:19:48.889Z,98657.91
2023-01-01T02:22:36.503Z,98649.78
2023-01-01T02:25:58.435Z,98644.94
2023-01-01T02:28:44.174Z,98640.00
2023-01-01T02:31:21.229Z,98636.34
2023-01-01T02:33:51.080Z,98628.84
2023-01-01T02:36:19.598Z,98635.78
2023-01-01T02:38:48.519Z,98632.69
2023-01-01T02:41:31.377Z,98624.91
2023-01-01T02:46:31.744Z,98631.31
2023-01-01T02:49:00.490Z,98619.06
2023-01-01T02:51:36.638Z,98624.38
2023-01-01T02:54:17.500Z,98614.13
2023-01-01T02:57:04.867Z,98606.78
2023-01-01T03:00:31.477Z,98592.19
2023-01-01T03:03:01.660Z,98589.53
2023-01-01T03:06:00.547Z,98574.44
2023-01-01T03:08:38.114Z,98579.41
2023-01-01T03:11:08.557Z,98576.66
2023-01-01T03:13:39.963Z,98575.47
2023-01-01T03:16:25.488Z,98562.84
2023-01-01T03:19:12.601Z,98567.59
2023-01-01T03:22:16.532Z,98561.28
2023-01-01T03:25:26.053Z,98547.94
2023-01-01T03:27:57.933Z,98555.06
2023-01-01T03:30:25.288Z,98551.78
2023-01-01T03:33:03.561Z,98541.44
2023-01-01T03:35:41.087Z,98535.97
2023-01-01T03:38:17.908Z,98538.59
2023-01-01T03:40:46.270Z,98547.22
2023-01-01T03:43:19.654Z,98530.28
2023-01-01T03:45:47.293Z,98525.34
2023-01-01T03:48:14.225Z,98533.31
2023-01-01T03:51:04.173Z,98519.41
2023-01-01T03:53:39.787Z,98524.06
2023-01-01T03:56:07.045Z,98520.44
2023-01-01T03:58:38.813Z,98509.63
2023-01-01T04:01:13.568Z,98492.72
2023-01-01T04:03:40.464Z,98498.84
2023-01-01T04:06:08.155Z,98487.59
2023-01-01T04:08:36.109Z,98498.03
2023-01-01T04:11:28.311Z,98501.13
2023-01-01T04:13:55.869Z,98507.16
2023-01-01T04:16:22.956Z,98502.31
2023-01-01T04:18:50.713Z,98486.88
2023-01-01T04:21:17.776Z,98482.81
2023-01-01T04:23:44.967Z,98473.66
2023-01-01T04:26:16.303Z,98487.94
2023-01-01T04:28:44.085Z,98480.81
2023-01-01T04:31:11.904Z,98482.09
2023-01-01T04:33:39.339Z,98466.72
2023-01-01T04:36:08.168Z,98467.53
2023-01-01T04:38:36.630Z,98465.53
2023-01-01T04:41:04.451Z,98473.66
2023-01-01T04:43:32.078Z,98466.53
2023-01-01T04:46:00.831Z,98469.63
2023-01-01T04:48:29.587Z,98461.31
2023-01-01T04:50:58.953Z,98459.84
2023-01-01T04:53:26.531Z,98462.66
2023-01-01T04:55:53.540Z,98467.41
2023-01-01T04:58:20.690Z,98467.25
2023-01-01T05:00:51.366Z,98466.44
2023-01-01T05:03:18.527Z,98459.53
2023-01-01T05:05:51.068Z,98440.97
2023-01-01T05:08:18.393Z,98452.22
2023-01-01T05:10:45.339Z,98449.56
2023-01-01T05:13:12.445Z,98451.03
2023-01-01T05:15:39.490Z,98458.53
2023-01-01T05:18:06.383Z,98465.28
2023-01-01T05:20:33.402Z,98466.94
2023-01-01T05:23:00.536Z,98453.47
2023-01-01T05:25:27.527Z,98456.50
2023-01-01T05:27:54.630Z,98444.06
2023-01-01T05:30:22.138Z,98445.72
2023-01-01T05:32:49.114Z,98435.91
2023-01-01T05:35:18.360Z,98433.28
2023-01-01T05:37:47.417Z,98426.13
2023-01-01T05:40:14.409Z,98426.94
2023-01-01T05:42:42.713Z,98436.97
2023-01-01T05:45:10.260Z,98438.81
2023-01-01T05:47:37.349Z,98442.47
2023-01-01T05:52:30.659Z,98437.16
2023-01-01T05:54:58.556Z,98430.16
2023-01-01T05:57:30.319Z,98431.84
2023-01-01T05:59:57.618Z,98417.16
2023-01-01T06:02:24.754Z,98420.63
2023-01-01T06:04:51.880Z,98392.59
2023-01-01T06:07:19.141Z,98422.09
2023-01-01T06:09:46.089Z,98417.34
2023-01-01T06:12:13.097Z,98415.34
2023-01-01T06:14:40.082Z,98414.13
2023-01-01T06:17:07.130Z,98421.72
2023-01-01T06:19:34.214Z,98394.94
2023-01-01T06:22:01.227Z,98393.50
2023-01-01T06:24:29.733Z,98395.19
2023-01-01T06:26:59.739Z,98391.50
2023-01-01T06:29:26.795Z,98396.44
2023-01-01T06:31:53.764Z,98384.34
2023-01-01T06:34:20.785Z,98398.06
2023-01-01T06:36:47.726Z,98410.13
2023-01-01T06:39:16.339Z,98409.97
2023-01-01T06:41:43.320Z,98407.47
2023-01-01T06:44:10.445Z,98391.56
2023-01-01T06:46:37.771Z,98384.47
2023-01-01T06:49:13.063Z,98383.22
2023-01-01T06:51:45.254Z,98381.78
2023-01-01T06:54:12.667Z,98363.41
2023-01-01T06:56:40.046Z,98380.81
2023-01-01T06:59:07.314Z,98358.59
2023-01-01T07:01:36.113Z,98356.53
2023-01-01T07:04:06.432Z,98359.44
2023-01-01T07:06:34.521Z,98347.97
2023-01-01T07:09:01.774Z,98359.81
2023-01-01T07:11:29.436Z,98354.13
2023-01-01T07:13:56.592Z,98349.84
2023-01-01T07:16:23.944Z,98347.59
2023-01-01T07:18:51.547Z,98355.78
2023-01-01T07:21:40.908Z,98340.66
2023-01-01T07:24:12.416Z,98338.19
2023-01-01T07:26:41.126Z,98335.75
2023-01-01T07:29:11.214Z,98332.06
2023-01-01T07:31:40.353Z,98347.66
2023-01-01T07:34:09.770Z,98328.44
2023-01-01T07:36:36.852Z,98336.22
2023-01-01T07:39:32.967Z,98331.78
2023-01-01T07:42:10.817Z,98337.50
2023-01-01T07:44:38.250Z,98338.75
2023-01-01T07:47:06.412Z,98338.94
2023-01-01T07:49:36.273Z,98333.47
2023-01-01T07:52:04.705Z,98322.63
2023-01-01T07:54:32.729Z,98328.59
2023-01-01T07:56:59.768Z,98333.94
2023-01-01T07:59:27.017Z,98320.47
2023-01-01T08:01:54.278Z,98308.22
2023-01-01T08:04:21.355Z,98309.00
2023-01-01T08:06:48.376Z,98309.03
2023-01-01T08:09:15.451Z,98313.13
2023-01-01T08:11:42.416Z,98316.41
2023-01-01T08:14:09.608Z,98317.63
2023-01-01T08:16:36.757Z,98326.88
2023-01-01T08:19:03.795Z,98326.66
2023-01-01T08:21:45.871Z,98330.75
2023-01-01T08:24:13.015Z,98326.66
2023-01-01T08:26:40.008Z,98309.94
2023-01-01T08:29:07.394Z,98323.22
2023-01-01T08:31:34.555Z,98308.31
2023-01-01T08:34:02.943Z,98314.03
2023-01-01T08:36:30.873Z,98301.78
2023-01-01T08:38:58.140Z,98303.03
2023-01-01T08:41:28.487Z,98300.59
2023-01-01T08:43:55.582Z,98281.34
2023-01-01T08:46:22.775Z,98296.09
2023-01-01T08:48:49.755Z,98284.66
2023-01-01T08:51:20.158Z,98271.56
2023-01-01T08:53:55.449Z,98266.88
2023-01-01T08:56:45.027Z,98286.09
2023-01-01T08:59:10.456Z,98281.00
2023-01-01T09:01:37.565Z,98275.69
2023-01-01T09:04:04.673Z,98277.91
2023-01-01T09:06:31.743Z,98272.59
2023-01-01T09:08:58.798Z,98277.13
2023-01-01T09:11:28.783Z,98277.72
2023-01-01T09:13:55.864Z,98268.31
2023-01-01T09:16:23.223Z,98262.59
2023-01-01T09:18:50.952Z,98239.50
2023-01-01T09:21:18.055Z,98243.38
2023-01-01T09:23:45.125Z,98215.16
2023-01-01T09:26:12.131Z,98213.31
2023-01-01T09:28:39.325Z,98229.09
2023-01-01T09:31:07.111Z,98229.50
2023-01-01T09:33:35.727Z,98223.34
2023-01-01T09:36:18.585Z,98226.22
2023-01-01T09:38:52.888Z,98215.56
2023-01-01T09:41:44.268Z,98209.84
2023-01-01T09:44:26.525Z,98191.03
2023-01-01T09:47:40.888Z,98184.69
2023-01-01T09:50:47.587Z,98189.41
2023-01-01T09:57:39.566Z,98196.75
2023-01-01T10:05:28.783Z,98197.59
2023-01-01T10:08:35.847Z,98190.84
2023-01-01T10:11:18.039Z,98182.22
2023-01-01T10:13:46.324Z,98188.38
2023-01-01T10:16:28.537Z,98187.53
2023-01-01T10:19:00.602Z,98182.66
2023-01-01T10:21:33.849Z,98159.94
2023-01-01T10:24:03.571Z,98171.78
2023-01-01T10:26:31.838Z,98151.34
2023-01-01T10:29:04.997Z,98168.50
2023-01-01T10:31:34.575Z,98152.13
2023-01-01T10:34:36.906Z,98143.53
2023-01-01T10:37:08.606Z,98126.75
2023-01-01T10:39:39.035Z,98140.63
2023-01-01T10:42:12.488Z,98138.56
2023-01-01T10:44:40.228Z,98137.56
2023-01-01T10:47:21.545Z,98134.91
2023-01-01T10:50:19.163Z,98135.09
2023-01-01T10:53:02.104Z,98131.81
2023-01-01T10:55:36.510Z,98115.66
2023-01-01T10:58:35.600Z,98105.66
2023-01-01T11:01:04.511Z,98130.78
2023-01-01T11:03:32.689Z,98107.66
2023-01-01T11:06:10.065Z,98099.91
2023-01-01T11:08:39.268Z,98115.81
2023-01-01T11:11:10.502Z,98091.09
2023-01-01T11:13:38.446Z,98097.78
2023-01-01T11:16:11.564Z,98115.81
2023-01-01T11:18:38.712Z,98116.84
2023-01-01T11:21:06.478Z,98116.03
2023-01-01T11:23:36.069Z,98107.00
2023-01-01T11:26:24.626Z,98099.88
2023-01-01T11:29:05.853Z,98103.72
2023-01-01T11:31:37.432Z,98099.41
2023-01-01T11:34:25.580Z,98100.25
2023-01-01T11:36:53.687Z,98095.13
2023-01-01T11:39:32.091Z,98087.56
2023-01-01T11:41:59.593Z,98096.97
2023-01-01T11:44:40.731Z,98083.22
2023-01-01T11:47:20.214Z,98079.97
2023-01-01T11:49:54.090Z,98083.84
2023-01-01T11:52:38.389Z,98059.31
2023-01-01T11:55:18.066Z,98076.88
2023-01-01T11:58:08.100Z,98076.69
2023-01-01T12:00:37.250Z,98072.75
2023-01-01T12:03:07.054Z,98066.41
2023-01-01T12:06:08.337Z,98066.00
2023-01-01T12:08:42.825Z,98062.72
2023-01-01T12:11:25.670Z,98066.00
2023-01-01T12:14:13.157Z,98058.00
2023-01-01T12:16:52.398Z,98050.03
2023-01-01T12:19:28.366Z,98040.00
2023-01-01T12:21:58.220Z,98046.69
2023-01-01T12:24:35.263Z,98047.53
2023-01-01T12:27:31.267Z,98048.13
2023-01-01T12:30:19.876Z,98040.97
2023-01-01T12:33:08.634Z,98043.41
2023-01-01T12:36:06.152Z,98037.63
2023-01-01T12:38:43.566Z,98038.06
2023-01-01T12:41:17.660Z,98045.44
2023-01-01T12:43:44.720Z,98044.22
2023-01-01T12:47:06.902Z,98047.72
2023-01-01T12:49:40.444Z,98041.53
2023-01-01T12:52:26.744Z,98046.66
2023-01-01T12:55:30.288Z,98046.22
2023-01-01T12:58:13.357Z,98042.56
2023-01-01T13:00:44.086Z,98040.72
2023-01-01T13:03:23.876Z,98035.16
2023-01-01T13:05:54.323Z,98015.59
2023-01-01T13:08:22.367Z,98023.75
2023-01-01T13:10:53.711Z,98029.00
2023-01-01T13:13:20.821Z,98003.25
2023-01-01T13:16:10.407Z,98007.06
2023-01-01T13:18:37.482Z,98004.84
2023-01-01T13:21:16.683Z,98018.75
2023-01-01T13:23:44.855Z,98016.69
2023-01-01T13:26:18.168Z,98018.53
2023-01-01T13:28:57.515Z,98007.06
2023-01-01T13:31:40.309Z,98006.03
2023-01-01T13:34:58.574Z,98006.44
2023-01-01T13:37:31.476Z,97992.53
2023-01-01T13:40:14.214Z,97990.44
2023-01-01T13:42:44.609Z,97992.50
2023-01-01T13:49:01.925Z,97990.44
2023-01-01T13:54:33.866Z,97995.97
2023-01-01T13:57:04.134Z,97973.09
2023-01-01T13:59:31.077Z,97985.13
2023-01-01T14:02:24.078Z,97977.72
2023-01-01T14:04:57.968Z,97985.94
2023-01-01T14:07:52.265Z,97990.16
2023-01-01T14:10:27.967Z,97978.53
2023-01-01T14:13:07.587Z,97989.97
2023-01-01T14:15:38.392Z,97983.31
2023-01-01T14:18:13.935Z,97975.28
2023-01-01T14:20:43.909Z,97984.03
2023-01-01T14:23:29.685Z,97985.25
2023-01-01T14:25:57.298Z,97986.25
2023-01-01T14:28:29.966Z,97976.22
2023-01-01T14:31:11.061Z,97970.06
2023-01-01T14:33:39.723Z,97956.81
2023-01-01T14:36:25.399Z,97954.28
2023-01-01T14:38:57.625Z,97949.84
2023-01-01T14:41:39.994Z,97972.09
2023-01-01T14:44:11.469Z,97974.16
2023-01-01T14:46:44.498Z,97980.88
2023-01-01T14:49:35.296Z,97969.84
2023-01-01T14:52:13.717Z,97973.91
2023-01-01T14:54:45.214Z,97973.88
2023-01-01T14:57:21.703Z,97962.56
2023-01-01T14:59:54.557Z,97935.97
2023-01-01T15:02:24.631Z,97928.13
2023-01-01T15:04:53.608Z,97936.72
2023-01-01T15:07:29.898Z,97939.75
2023-01-01T15:10:00.601Z,97941.44
2023-01-01T15:12:28.242Z,97933.25
2023-01-01T15:14:58.511Z,97936.66
2023-01-01T15:17:26.612Z,97943.16
2023-01-01T15:20:23.510Z,97937.63
2023-01-01T15:22:54.138Z,97930.50
2023-01-01T15:25:22.051Z,97923.66
2023-01-01T15:27:54.561Z,97910.38
2023-01-01T15:30:34.379Z,97925.50
2023-01-01T15:33:16.650Z,97928.53
2023-01-01T15:35:48.180Z,97914.59
2023-01-01T15:38:24.807Z,97921.13
2023-01-01T15:40:53.775Z,97902.25
2023-01-01T15:43:23.635Z,97923.66
2023-01-01T15:45:54.594Z,97895.13
2023-01-01T15:48:37.756Z,97886.69
2023-01-01T15:51:06.357Z,97870.19
2023-01-01T15:53:56.723Z,97897.28
2023-01-01T15:56:32.327Z,97882.41
2023-01-01T15:59:14.400Z,97889.06
2023-01-01T16:01:42.639Z,97875.00
2023-01-01T16:04:29.354Z,97880.50
2023-01-01T16:06:58.677Z,97882.38
2023-01-01T16:09:26.178Z,97877.84
2023-01-01T16:11:54.614Z,97881.91
2023-01-01T16:14:22.360Z,97883.91
2023-01-01T16:17:01.312Z,97871.25
2023-01-01T16:19:31.057Z,97870.22
2023-01-01T16:22:03.039Z,97872.81
2023-01-01T16:24:30.133Z,97858.50
2023-01-01T16:26:57.614Z,97865.09
2023-01-01T16:29:24.748Z,97859.09
2023-01-01T16:31:55.115Z,97857.91
2023-01-01T16:34:22.363Z,97851.56
2023-01-01T16:36:49.645Z,97849.50
2023-01-01T16:39:16.712Z,97846.69
2023-01-01T16:41:44.681Z,97843.69
2023-01-01T16:44:16.539Z,97826.75
2023-01-01T16:46:44.259Z,97836.50
2023-01-01T16:49:11.314Z,97819.69
2023-01-01T16:51:43.707Z,97844.41
2023-01-01T16:54:12.777Z,97841.75
2023-01-01T16:56:42.139Z,97827.59
2023-01-01T16:59:13.887Z,97825.75
2023-01-01T17:01:41.558Z,97825.03
2023-01-01T17:04:12.207Z,97826.47
2023-01-01T17:06:39.903Z,97828.56
2023-01-01T17:09:07.289Z,97835.97
2023-01-01T17:11:34.424Z,97829.44
2023-01-01T17:14:06.910Z,97818.22
2023-01-01T17:16:39.184Z,97799.75
2023-01-01T17:19:16.073Z,97812.16
2023-01-01T17:22:00.272Z,97800.69
2023-01-01T17:24:36.382Z,97794.91
2023-01-01T17:27:03.854Z,97786.91
2023-01-01T17:29:30.879Z,97789.47
2023-01-01T17:31:57.999Z,97793.06
2023-01-01T17:34:25.229Z,97765.47
2023-01-01T17:37:02.651Z,97793.88
2023-01-01T17:39:29.905Z,97786.84
2023-01-01T17:42:04.217Z,97802.97
2023-01-01T17:44:35.208Z,97779.50
2023-01-01T17:47:06.785Z,97775.13
2023-01-01T17:49:35.193Z,97780.81
2023-01-01T17:52:03.676Z,97781.41
2023-01-01T17:54:31.086Z,97791.59
2023-01-01T17:57:03.982Z,97772.13
2023-01-01T17:59:34.044Z,97793.38
2023-01-01T18:02:01.642Z,97792.78
2023-01-01T18:04:29.926Z,97771.88
2023-01-01T18:07:02.529Z,97770.28
2023-01-01T18:09:38.457Z,97773.38
2023-01-01T18:12:12.565Z,97770.84
2023-01-01T18:14:43.163Z,97772.47
2023-01-01T18:17:12.945Z,97780.47
2023-01-01T18:19:48.603Z,97777.81
2023-01-01T18:22:31.662Z,97795.09
2023-01-01T18:24:59.766Z,97796.25
2023-01-01T18:27:30.974Z,97797.75
2023-01-01T18:30:00.581Z,97791.16
2023-01-01T18:35:11.030Z,97782.44
2023-01-01T18:37:39.368Z,97795.31
2023-01-01T18:40:13.096Z,97795.56
2023-01-01T18:42:56.129Z,97770.59
2023-01-01T18:45:24.469Z,97782.44
2023-01-01T18:47:51.691Z,97771.88
2023-01-01T18:50:26.739Z,97771.06
2023-01-01T18:53:00.750Z,97778.38
2023-01-01T18:55:29.288Z,97771.06
2023-01-01T18:58:04.672Z,97766.88
2023-01-01T19:00:33.160Z,97764.22
2023-01-01T19:03:05.145Z,97775.09
2023-01-01T19:05:45.682Z,97758.63
2023-01-01T19:08:17.110Z,97767.69
2023-01-01T19:10:47.585Z,97768.81
2023-01-01T19:13:24.994Z,97773.00
2023-01-01T19:15:59.277Z,97780.78
2023-01-01T19:18:29.827Z,97762.78
2023-01-01T19:21:12.915Z,97766.13
2023-01-01T19:23:51.478Z,97766.38
2023-01-01T19:26:34.129Z,97766.81
2023-01-01T19:29:20.762Z,97745.81
2023-01-01T19:31:49.711Z,97761.81
2023-01-01T19:34:17.039Z,97750.00
2023-01-01T19:36:47.037Z,97763.91
2023-01-01T19:39:15.030Z,97762.38
2023-01-01T19:41:44.478Z,97768.78
2023-01-01T19:44:25.248Z,97768.22
2023-01-01T19:46:52.632Z,97796.44
2023-01-01T19:49:28.754Z,97776.91
2023-01-01T19:51:55.874Z,97778.44
2023-01-01T19:54:23.314Z,97776.66
2023-01-01T19:56:51.966Z,97780.41
2023-01-01T19:59:19.894Z,97775.97
2023-01-01T20:02:03.280Z,97770.84
2023-01-01T20:04:42.763Z,97772.81
2023-01-01T20:07:12.272Z,97782.78
2023-01-01T20:12:25.957Z,97761.56
2023-01-01T20:14:53.961Z,97760.91
2023-01-01T20:17:25.804Z,97758.81
2023-01-01T20:19:54.954Z,97761.38
2023-01-01T20:22:22.954Z,97762.19
2023-01-01T20:24:50.095Z,97770.44
2023-01-01T20:27:27.000Z,97755.53
2023-01-01T20:29:57.782Z,97770.06
2023-01-01T20:32:26.384Z,97770.63
2023-01-01T20:35:05.029Z,97786.34
2023-01-01T20:37:37.969Z,97783.78
2023-01-01T20:40:07.376Z,97778.00
2023-01-01T20:42:34.508Z,97793.66
2023-01-01T20:45:07.339Z,97784.84
2023-01-01T20:47:34.922Z,97778.00
2023-01-01T20:50:02.024Z,97787.16
2023-01-01T20:52:29.973Z,97802.38
2023-01-01T20:54:57.081Z,97785.53
2023-01-01T20:57:24.511Z,97802.28
2023-01-01T20:59:51.500Z,97798.56
2023-01-01T21:02:18.700Z,97811.22
2023-01-01T21:04:45.731Z,97808.69
2023-01-01T21:07:13.193Z,97798.44
2023-01-01T21:09:41.238Z,97810.09
2023-01-01T21:12:09.238Z,97806.44
2023-01-01T21:14:37.072Z,97807.59
2023-01-01T21:17:33.615Z,97809.22
2023-01-01T21:20:00.799Z,97796.72
2023-01-01T21:22:30.055Z,97788.25
2023-01-01T21:25:16.745Z,97783.47
2023-01-01T21:27:47.000Z,97786.94
2023-01-01T21:30:14.596Z,97798.31
2023-01-01T21:32:43.575Z,97798.44
2023-01-01T21:35:34.725Z,97782.66
2023-01-01T21:38:04.267Z,97792.06
2023-01-01T21:40:55.827Z,97780.47
2023-01-01T21:43:31.864Z,97776.41
2023-01-01T21:46:11.046Z,97784.19
2023-01-01T21:49:00.549Z,97770.63
2023-01-01T21:51:33.207Z,97768.66
2023-01-01T21:54:14.937Z,97775.84
2023-01-01T21:56:43.719Z,97763.56
2023-01-01T21:59:28.039Z,97767.94
2023-01-01T22:02:05.763Z,97772.69
2023-01-01T22:04:44.425Z,97742.19
2023-01-01T22:10:34.858Z,97752.75
2023-01-01T22:13:02.442Z,97741.97
2023-01-01T22:15:37.030Z,97738.94
2023-01-01T22:18:22.225Z,97739.84
2023-01-01T22:20:49.243Z,97727.44
2023-01-01T22:23:19.255Z,97725.84
2023-01-01T22:25:47.254Z,97720.13
2023-01-01T22:28:20.887Z,97721.41
2023-01-01T22:30:50.488Z,97720.41
2023-01-01T22:33:19.127Z,97715.97
2023-01-01T22:35:46.333Z,97714.13
2023-01-01T22:38:21.125Z,97691.34
2023-01-01T22:40:50.575Z,97685.22
2023-01-01T22:43:19.459Z,97697.84
2023-01-01T22:45:48.054Z,97695.66
2023-01-01T22:48:37.404Z,97700.66
2023-01-01T22:51:23.301Z,97695.56
2023-01-01T22:53:50.473Z,97696.38
2023-01-01T22:56:20.426Z,97697.19
2023-01-01T22:58:54.806Z,97696.59
2023-01-01T23:01:24.083Z,97697.06
2023-01-01T23:03:51.492Z,97707.19
2023-01-01T23:06:19.156Z,97705.66
2023-01-01T23:08:46.569Z,97711.72
2023-01-01T23:11:13.836Z,97727.63
2023-01-01T23:13:59.268Z,97737.63
2023-01-01T23:16:26.407Z,97743.22
2023-01-01T23:18:53.449Z,97737.75
2023-01-01T23:21:26.772Z,97739.75
2023-01-01T23:23:56.861Z,97723.50
2023-01-01T23:26:24.658Z,97748.09
2023-01-01T23:28:52.250Z,97749.00
2023-01-01T23:31:25.149Z,97756.28
2023-01-01T23:33:54.124Z,97777.50
2023-01-01T23:36:22.747Z,97787.31
2023-01-01T23:38:49.692Z,97798.56
2023-01-01T23:41:16.731Z,97813.38
2023-01-01T23:43:44.199Z,97834.91
2023-01-01T23:46:12.747Z,97825.03
2023-01-01T23:48:43.702Z,97823.94
2023-01-01T23:51:11.606Z,97833.13
2023-01-01T23:53:38.553Z,97825.50
2023-01-01T23:56:05.949Z,97826.38
2023-01-01T23:58:33.141Z,97834.22
